sensor_id;sensor_type;location;lat;lon;timestamp;pressure;altitude;pressure_sealevel;temperature;humidity
62418;BME280;48456;54.242;10.280;2024-02-21T00:02:20;101363.22;;;7.59;100.00
62418;BME280;48456;54.242;10.280;2024-02-21T00:04:46;101361.44;;;7.60;100.00
62418;BME280;48456;54.242;10.280;2024-02-21T00:07:13;101349.22;;;7.62;100.00
62418;BME280;48456;54.242;10.280;2024-02-21T00:09:40;101349.19;;;7.60;100.00
62418;BME280;48456;54.242;10.280;2024-02-21T00:12:06;101350.09;;;7.62;100.00
62418;BME280;48456;54.242;10.280;2024-02-21T00:14:33;101340.41;;;7.61;100.00
62418;BME280;48456;54.242;10.280;2024-02-21T00:16:59;101343.13;;;7.64;100.00
62418;BME280;48456;54.242;10.280;2024-02-21T00:19:26;101343.19;;;7.69;100.00
62418;BME280;48456;54.242;10.280;2024-02-21T00:21:52;101338.78;;;7.70;100.00
62418;BME280;48456;54.242;10.280;2024-02-21T00:24:18;101337.97;;;7.72;100.00
62418;BME280;48456;54.242;10.280;2024-02-21T00:26:45;101324.78;;;7.72;100.00
62418;BME280;48456;54.242;10.280;2024-02-21T00:29:11;101314.25;;;7.72;100.00
62418;BME280;48456;54.242;10.280;2024-02-21T00:31:38;101320.41;;;7.73;100.00
62418;BME280;48456;54.242;10.280;2024-02-21T00:34:04;101305.50;;;7.72;100.00
62418;BME280;48456;54.242;10.280;2024-02-21T00:36:31;101294.97;;;7.72;100.00
62418;BME280;48456;54.242;10.280;2024-02-21T00:38:57;101292.34;;;7.75;100.00
62418;BME280;48456;54.242;10.280;2024-02-21T00:41:23;101292.38;;;7.76;100.00
62418;BME280;48456;54.242;10.280;2024-02-21T00:43:50;101280.97;;;7.76;100.00
62418;BME280;48456;54.242;10.280;2024-02-21T00:46:16;101296.78;;;7.76;100.00
62418;BME280;48456;54.242;10.280;2024-02-21T00:48:43;101292.41;;;7.78;100.00
62418;BME280;48456;54.242;10.280;2024-02-21T00:51:09;101282.72;;;7.75;100.00
62418;BME280;48456;54.242;10.280;2024-02-21T00:53:36;101276.63;;;7.79;100.00
62418;BME280;48456;54.242;10.280;2024-02-21T00:56:05;101276.63;;;7.79;100.00
62418;BME280;48456;54.242;10.280;2024-02-21T00:58:31;101268.75;;;7.81;100.00
62418;BME280;48456;54.242;10.280;2024-02-21T01:00:58;101259.97;;;7.82;100.00
62418;BME280;48456;54.242;10.280;2024-02-21T01:03:24;101254.72;;;7.82;100.00
62418;BME280;48456;54.242;10.280;2024-02-21T01:05:51;101251.22;;;7.85;100.00
62418;BME280;48456;54.242;10.280;2024-02-21T01:08:17;101244.22;;;7.84;100.00
62418;BME280;48456;54.242;10.280;2024-02-21T01:10:44;101246.00;;;7.86;100.00
62418;BME280;48456;54.242;10.280;2024-02-21T01:13:10;101240.66;;;7.82;100.00
62418;BME280;48456;54.242;10.280;2024-02-21T01:15:37;101237.13;;;7.79;100.00
62418;BME280;48456;54.242;10.280;2024-02-21T01:18:03;101216.06;;;7.79;100.00
62418;BME280;48456;54.242;10.280;2024-02-21T01:20:31;101190.50;;;7.74;100.00
62418;BME280;48456;54.242;10.280;2024-02-21T01:22:58;101168.44;;;7.65;100.00
62418;BME280;48456;54.242;10.280;2024-02-21T01:25:24;101157.91;;;7.64;100.00
62418;BME280;48456;54.242;10.280;2024-02-21T01:27:51;101146.53;;;7.65;100.00
62418;BME280;48456;54.242;10.280;2024-02-21T01:30:18;101137.75;;;7.66;100.00
62418;BME280;48456;54.242;10.280;2024-02-21T01:32:44;101136.00;;;7.68;100.00
62418;BME280;48456;54.242;10.280;2024-02-21T01:35:10;101127.22;;;7.66;100.00
62418;BME280;48456;54.242;10.280;2024-02-21T01:37:37;101107.00;;;7.63;100.00
62418;BME280;48456;54.242;10.280;2024-02-21T01:40:04;101115.78;;;7.64;100.00
62418;BME280;48456;54.242;10.280;2024-02-21T01:42:31;101112.28;;;7.66;100.00
62418;BME280;48456;54.242;10.280;2024-02-21T01:44:57;101100.09;;;7.72;100.00
62418;BME280;48456;54.242;10.280;2024-02-21T01:47:23;101100.94;;;7.72;100.00
62418;BME280;48456;54.242;10.280;2024-02-21T01:49:50;101099.19;;;7.71;100.00
62418;BME280;48456;54.242;10.280;2024-02-21T01:52:17;101092.19;;;7.72;100.00
62418;BME280;48456;54.242;10.280;2024-02-21T01:54:44;101071.13;;;7.72;100.00
62418;BME280;48456;54.242;10.280;2024-02-21T01:57:10;101037.78;;;7.74;100.00
62418;BME280;48456;54.242;10.280;2024-02-21T01:59:37;101057.09;;;7.74;100.00
62418;BME280;48456;54.242;10.280;2024-02-21T02:02:05;101047.47;;;7.76;100.00
62418;BME280;48456;54.242;10.280;2024-02-21T02:04:31;101046.59;;;7.79;100.00
62418;BME280;48456;54.242;10.280;2024-02-21T02:06:59;101050.16;;;7.81;100.00
62418;BME280;48456;54.242;10.280;2024-02-21T02:09:26;101047.53;;;7.83;100.00
62418;BME280;48456;54.242;10.280;2024-02-21T02:11:52;101042.25;;;7.81;100.00
62418;BME280;48456;54.242;10.280;2024-02-21T02:14:19;101035.22;;;7.82;100.00
62418;BME280;48456;54.242;10.280;2024-02-21T02:16:46;101013.28;;;7.81;100.00
62418;BME280;48456;54.242;10.280;2024-02-21T02:19:13;101018.59;;;7.84;100.00
62418;BME280;48456;54.242;10.280;2024-02-21T02:21:44;101013.31;;;7.84;100.00
62418;BME280;48456;54.242;10.280;2024-02-21T02:24:11;101016.81;;;7.83;100.00
62418;BME280;48456;54.242;10.280;2024-02-21T02:26:38;101011.53;;;7.83;100.00
62418;BME280;48456;54.242;10.280;2024-02-21T02:29:04;101002.78;;;7.84;100.00
62418;BME280;48456;54.242;10.280;2024-02-21T02:31:31;101008.03;;;7.86;100.00
62418;BME280;48456;54.242;10.280;2024-02-21T02:33:57;101006.31;;;7.86;100.00
62418;BME280;48456;54.242;10.280;2024-02-21T02:36:24;101000.19;;;7.89;100.00
62418;BME280;48456;54.242;10.280;2024-02-21T02:38:50;100998.44;;;7.89;100.00
62418;BME280;48456;54.242;10.280;2024-02-21T02:41:17;100996.66;;;7.90;100.00
62418;BME280;48456;54.242;10.280;2024-02-21T02:43:43;100988.78;;;7.91;100.00
62418;BME280;48456;54.242;10.280;2024-02-21T02:46:12;100995.84;;;7.92;100.00
62418;BME280;48456;54.242;10.280;2024-02-21T02:48:39;100993.22;;;7.92;100.00
62418;BME280;48456;54.242;10.280;2024-02-21T02:51:05;100991.41;;;7.91;100.00
62418;BME280;48456;54.242;10.280;2024-02-21T02:53:39;100978.25;;;7.88;100.00
62418;BME280;48456;54.242;10.280;2024-02-21T02:56:05;100989.66;;;7.89;100.00
62418;BME280;48456;54.242;10.280;2024-02-21T02:58:32;100987.00;;;7.89;100.00
62418;BME280;48456;54.242;10.280;2024-02-21T03:00:58;100986.16;;;7.88;100.00
62418;BME280;48456;54.242;10.280;2024-02-21T03:03:25;100980.88;;;7.88;100.00
62418;BME280;48456;54.242;10.280;2024-02-21T03:05:51;100992.28;;;7.89;100.00
62418;BME280;48456;54.242;10.280;2024-02-21T03:08:18;100981.75;;;7.89;100.00
62418;BME280;48456;54.242;10.280;2024-02-21T03:10:44;100983.50;;;7.88;100.00
62418;BME280;48456;54.242;10.280;2024-02-21T03:13:11;100990.53;;;7.89;100.00
62418;BME280;48456;54.242;10.280;2024-02-21T03:15:37;100990.53;;;7.89;100.00
62418;BME280;48456;54.242;10.280;2024-02-21T03:18:04;100998.44;;;7.89;100.00
62418;BME280;48456;54.242;10.280;2024-02-21T03:20:30;100986.16;;;7.88;100.00
62418;BME280;48456;54.242;10.280;2024-02-21T03:22:57;100945.75;;;7.88;100.00
62418;BME280;48456;54.242;10.280;2024-02-21T03:25:23;100927.28;;;7.86;100.00
62418;BME280;48456;54.242;10.280;2024-02-21T03:27:50;100924.66;;;7.86;100.00
62418;BME280;48456;54.242;10.280;2024-02-21T03:30:17;100932.56;;;7.86;100.00
62418;BME280;48456;54.242;10.280;2024-02-21T03:32:43;100923.75;;;7.86;100.00
62418;BME280;48456;54.242;10.280;2024-02-21T03:35:10;100914.13;;;7.86;100.00
62418;BME280;48456;54.242;10.280;2024-02-21T03:37:36;100915.00;;;7.87;100.00
62418;BME280;48456;54.242;10.280;2024-02-21T03:40:06;100916.75;;;7.86;100.00
62418;BME280;48456;54.242;10.280;2024-02-21T03:42:33;100911.47;;;7.86;100.00
62418;BME280;48456;54.242;10.280;2024-02-21T03:44:59;100912.38;;;7.85;100.00
62418;BME280;48456;54.242;10.280;2024-02-21T03:47:25;100907.97;;;7.84;100.00
62418;BME280;48456;54.242;10.280;2024-02-21T03:49:52;100909.72;;;7.85;100.00
62418;BME280;48456;54.242;10.280;2024-02-21T03:52:19;100918.50;;;7.84;100.00
62418;BME280;48456;54.242;10.280;2024-02-21T03:54:45;100909.72;;;7.85;100.00
62418;BME280;48456;54.242;10.280;2024-02-21T03:57:12;100915.88;;;7.87;100.00
62418;BME280;48456;54.242;10.280;2024-02-21T03:59:38;100923.78;;;7.87;100.00
62418;BME280;48456;54.242;10.280;2024-02-21T04:02:10;100931.69;;;7.87;100.00
62418;BME280;48456;54.242;10.280;2024-02-21T04:04:36;100929.03;;;7.84;100.00
62418;BME280;48456;54.242;10.280;2024-02-21T04:07:06;100930.72;;;7.76;100.00
62418;BME280;48456;54.242;10.280;2024-02-21T04:09:33;101387.81;;;7.61;100.00
62418;BME280;48456;54.242;10.280;2024-02-21T04:12:02;101386.72;;;7.48;100.00
62418;BME280;48456;54.242;10.280;2024-02-21T04:14:29;101497.19;;;7.44;100.00
62418;BME280;48456;54.242;10.280;2024-02-21T04:16:55;101535.63;;;7.35;100.00
62418;BME280;48456;54.242;10.280;2024-02-21T04:19:22;101559.25;;;7.32;100.00
62418;BME280;48456;54.242;10.280;2024-02-21T04:21:48;101582.94;;;7.31;100.00
62418;BME280;48456;54.242;10.280;2024-02-21T04:24:15;101592.44;;;7.25;100.00
62418;BME280;48456;54.242;10.280;2024-02-21T04:26:41;101603.75;;;7.21;100.00
62418;BME280;48456;54.242;10.280;2024-02-21T04:29:08;101600.13;;;7.16;100.00
62418;BME280;48456;54.242;10.280;2024-02-21T04:31:34;101610.56;;;7.13;100.00
62418;BME280;48456;54.242;10.280;2024-02-21T04:34:01;101620.13;;;7.08;100.00
62418;BME280;48456;54.242;10.280;2024-02-21T04:36:29;101627.09;;;7.06;100.00
62418;BME280;48456;54.242;10.280;2024-02-21T04:38:55;101635.81;;;7.03;100.00
62418;BME280;48456;54.242;10.280;2024-02-21T04:41:21;101641.03;;;7.01;100.00
62418;BME280;48456;54.242;10.280;2024-02-21T04:43:48;101640.03;;;6.98;100.00
62418;BME280;48456;54.242;10.280;2024-02-21T04:46:14;101652.28;;;6.96;100.00
62418;BME280;48456;54.242;10.280;2024-02-21T04:48:42;101664.59;;;6.97;100.00
62418;BME280;48456;54.242;10.280;2024-02-21T04:51:08;101663.63;;;6.93;100.00
62418;BME280;48456;54.242;10.280;2024-02-21T04:53:35;101675.88;;;6.93;100.00
62418;BME280;48456;54.242;10.280;2024-02-21T04:56:01;101686.41;;;6.93;100.00
62418;BME280;48456;54.242;10.280;2024-02-21T04:58:28;101700.41;;;6.92;100.00
62418;BME280;48456;54.242;10.280;2024-02-21T05:00:54;101700.41;;;6.92;100.00
62418;BME280;48456;54.242;10.280;2024-02-21T05:03:21;101712.66;;;6.91;100.00
62418;BME280;48456;54.242;10.280;2024-02-21T05:05:48;101710.88;;;6.90;100.00
62418;BME280;48456;54.242;10.280;2024-02-21T05:08:15;101709.13;;;6.89;100.00
62418;BME280;48456;54.242;10.280;2024-02-21T05:10:41;101720.50;;;6.89;100.00
62418;BME280;48456;54.242;10.280;2024-02-21T05:13:08;101724.00;;;6.88;100.00
62418;BME280;48456;54.242;10.280;2024-02-21T05:15:35;101732.78;;;6.89;100.00
62418;BME280;48456;54.242;10.280;2024-02-21T05:18:01;101735.41;;;6.89;100.00
62418;BME280;48456;54.242;10.280;2024-02-21T05:20:28;101746.00;;;6.91;100.00
62418;BME280;48456;54.242;10.280;2024-02-21T05:22:55;101740.69;;;6.89;100.00
62418;BME280;48456;54.242;10.280;2024-02-21T05:25:21;101739.78;;;6.88;100.00
62418;BME280;48456;54.242;10.280;2024-02-21T05:27:48;101740.63;;;6.87;100.00
62418;BME280;48456;54.242;10.280;2024-02-21T05:30:18;101745.84;;;6.86;100.00
62418;BME280;48456;54.242;10.280;2024-02-21T05:32:44;101027.91;;;6.87;100.00
62418;BME280;48456;54.242;10.280;2024-02-21T05:35:11;101028.78;;;6.88;100.00
62418;BME280;48456;54.242;10.280;2024-02-21T05:37:38;101022.59;;;6.84;100.00
62418;BME280;48456;54.242;10.280;2024-02-21T05:40:05;101026.09;;;6.83;100.00
62418;BME280;48456;54.242;10.280;2024-02-21T05:42:31;101020.84;;;6.83;100.00
62418;BME280;48456;54.242;10.280;2024-02-21T05:44:58;101027.81;;;6.81;100.00
62418;BME280;48456;54.242;10.280;2024-02-21T05:47:24;101021.69;;;6.81;100.00
62418;BME280;48456;54.242;10.280;2024-02-21T05:49:51;101017.31;;;6.83;100.00
62418;BME280;48456;54.242;10.280;2024-02-21T05:52:20;101019.06;;;6.82;100.00
62418;BME280;48456;54.242;10.280;2024-02-21T05:54:47;101020.84;;;6.83;100.00
62418;BME280;48456;54.242;10.280;2024-02-21T05:57:17;101021.69;;;6.81;100.00
62418;BME280;48456;54.242;10.280;2024-02-21T05:59:43;101031.31;;;6.80;100.00
62418;BME280;48456;54.242;10.280;2024-02-21T06:02:10;101026.97;;;6.82;100.00
62418;BME280;48456;54.242;10.280;2024-02-21T06:04:38;101038.34;;;6.83;100.00
62418;BME280;48456;54.242;10.280;2024-02-21T06:07:06;101033.13;;;6.84;100.00
62418;BME280;48456;54.242;10.280;2024-02-21T06:09:32;101024.34;;;6.85;100.00
62418;BME280;48456;54.242;10.280;2024-02-21T06:11:59;101027.00;;;6.85;100.00
62418;BME280;48456;54.242;10.280;2024-02-21T06:14:26;101030.50;;;6.84;100.00
62418;BME280;48456;54.242;10.280;2024-02-21T06:16:52;101031.41;;;6.86;100.00
62418;BME280;48456;54.242;10.280;2024-02-21T06:19:19;101043.66;;;6.86;100.00
62418;BME280;48456;54.242;10.280;2024-02-21T06:21:45;101041.03;;;6.86;100.00
62418;BME280;48456;54.242;10.280;2024-02-21T06:24:12;101043.66;;;6.86;100.00
62418;BME280;48456;54.242;10.280;2024-02-21T06:26:39;101046.28;;;6.86;100.00
62418;BME280;48456;54.242;10.280;2024-02-21T06:29:06;101048.94;;;6.87;100.00
62418;BME280;48456;54.242;10.280;2024-02-21T06:31:32;101053.28;;;6.85;100.00
62418;BME280;48456;54.242;10.280;2024-02-21T06:33:59;101062.06;;;6.86;100.00
62418;BME280;48456;54.242;10.280;2024-02-21T06:36:26;101055.09;;;6.86;100.00
62418;BME280;48456;54.242;10.280;2024-02-21T06:38:52;101055.06;;;6.85;100.00
62418;BME280;48456;54.242;10.280;2024-02-21T06:41:19;101043.63;;;6.84;100.00
62418;BME280;48456;54.242;10.280;2024-02-21T06:43:46;101056.84;;;6.87;100.00
62418;BME280;48456;54.242;10.280;2024-02-21T06:46:22;101051.59;;;6.87;100.00
62418;BME280;48456;54.242;10.280;2024-02-21T06:48:49;101038.38;;;6.84;100.00
62418;BME280;48456;54.242;10.280;2024-02-21T06:51:15;101041.81;;;6.80;100.00
62418;BME280;48456;54.242;10.280;2024-02-21T06:53:42;101041.75;;;6.74;100.00
62418;BME280;48456;54.242;10.280;2024-02-21T06:56:10;101046.88;;;6.65;100.00
62418;BME280;48456;54.242;10.280;2024-02-21T06:58:36;101038.84;;;6.57;100.00
62418;BME280;48456;54.242;10.280;2024-02-21T07:01:03;101047.63;;;6.57;100.00
62418;BME280;48456;54.242;10.280;2024-02-21T07:03:29;101046.72;;;6.57;100.00
62418;BME280;48456;54.242;10.280;2024-02-21T07:05:56;101043.22;;;6.56;100.00
62418;BME280;48456;54.242;10.280;2024-02-21T07:08:22;101047.59;;;6.56;100.00
62418;BME280;48456;54.242;10.280;2024-02-21T07:10:49;101039.59;;;6.49;100.00
62418;BME280;48456;54.242;10.280;2024-02-21T07:13:15;101044.66;;;6.39;100.00
62418;BME280;48456;54.242;10.280;2024-02-21T07:15:42;101039.25;;;6.29;100.00
62418;BME280;48456;54.242;10.280;2024-02-21T07:18:08;101039.13;;;6.21;100.00
62418;BME280;48456;54.242;10.280;2024-02-21T07:20:35;101036.41;;;6.17;100.00
62418;BME280;48456;54.242;10.280;2024-02-21T07:23:03;101032.88;;;6.15;100.00
62418;BME280;48456;54.242;10.280;2024-02-21T07:25:30;101024.94;;;6.11;100.00
62418;BME280;48456;54.242;10.280;2024-02-21T07:27:56;101017.97;;;6.12;100.00
62418;BME280;48456;54.242;10.280;2024-02-21T07:30:23;101024.09;;;6.13;100.00
62418;BME280;48456;54.242;10.280;2024-02-21T07:32:49;101032.88;;;6.15;100.00
62418;BME280;48456;54.242;10.280;2024-02-21T07:35:19;101027.63;;;6.15;100.00
62418;BME280;48456;54.242;10.280;2024-02-21T07:37:46;101033.81;;;6.18;100.00
62418;BME280;48456;54.242;10.280;2024-02-21T07:40:13;101046.16;;;6.22;100.00
62418;BME280;48456;54.242;10.280;2024-02-21T07:42:40;101045.34;;;6.27;100.00
62418;BME280;48456;54.242;10.280;2024-02-21T07:45:07;101062.97;;;6.32;100.00
62418;BME280;48456;54.242;10.280;2024-02-21T07:47:34;101069.13;;;6.34;100.00
62418;BME280;48456;54.242;10.280;2024-02-21T07:50:01;101069.22;;;6.39;100.00
62418;BME280;48456;54.242;10.280;2024-02-21T07:52:28;101065.75;;;6.42;100.00
62418;BME280;48456;54.242;10.280;2024-02-21T07:54:55;101062.22;;;6.40;100.00
62418;BME280;48456;54.242;10.280;2024-02-21T07:57:21;101058.78;;;6.44;100.00
62418;BME280;48456;54.242;10.280;2024-02-21T07:59:48;101053.53;;;6.44;100.00
62418;BME280;48456;54.242;10.280;2024-02-21T08:02:14;101065.00;;;6.49;100.00
62418;BME280;48456;54.242;10.280;2024-02-21T08:04:41;101059.81;;;6.52;100.00
62418;BME280;48456;54.242;10.280;2024-02-21T08:07:09;101038.78;;;6.52;100.00
62418;BME280;48456;54.242;10.280;2024-02-21T08:09:36;101046.53;;;6.46;100.00
62418;BME280;48456;54.242;10.280;2024-02-21T08:12:04;101056.19;;;6.47;100.00
62418;BME280;48456;54.242;10.280;2024-02-21T08:14:31;101055.25;;;6.43;100.00
62418;BME280;48456;54.242;10.280;2024-02-21T08:16:57;101055.22;;;6.40;100.00
62418;BME280;48456;54.242;10.280;2024-02-21T08:19:23;101061.34;;;6.41;100.00
62418;BME280;48456;54.242;10.280;2024-02-21T08:21:50;101063.97;;;6.41;100.00
62418;BME280;48456;54.242;10.280;2024-02-21T08:24:16;101068.41;;;6.43;100.00
62418;BME280;48456;54.242;10.280;2024-02-21T08:26:43;101066.69;;;6.44;100.00
62418;BME280;48456;54.242;10.280;2024-02-21T08:29:13;101065.91;;;6.51;100.00
62418;BME280;48456;54.242;10.280;2024-02-21T08:31:40;101066.78;;;6.52;100.00
62418;BME280;48456;54.242;10.280;2024-02-21T08:34:06;101058.00;;;6.51;100.00
62418;BME280;48456;54.242;10.280;2024-02-21T08:36:34;101044.06;;;6.55;100.00
62418;BME280;48456;54.242;10.280;2024-02-21T08:39:01;101042.47;;;6.65;100.00
62418;BME280;48456;54.242;10.280;2024-02-21T08:41:32;101043.38;;;6.69;100.00
62418;BME280;48456;54.242;10.280;2024-02-21T08:44:17;101037.28;;;6.70;100.00
62418;BME280;48456;54.242;10.280;2024-02-21T08:46:43;101043.38;;;6.66;100.00
62418;BME280;48456;54.242;10.280;2024-02-21T08:49:10;101038.09;;;6.66;100.00
62418;BME280;48456;54.242;10.280;2024-02-21T08:51:36;101025.84;;;6.68;100.00
62418;BME280;48456;54.242;10.280;2024-02-21T08:54:03;101024.19;;;6.73;100.00
62418;BME280;48456;54.242;10.280;2024-02-21T08:56:30;101026.88;;;6.78;100.00
62418;BME280;48456;54.242;10.280;2024-02-21T08:58:56;101031.25;;;6.75;100.00
62418;BME280;48456;54.242;10.280;2024-02-21T09:01:24;101032.09;;;6.74;100.00
62418;BME280;48456;54.242;10.280;2024-02-21T09:03:50;101028.59;;;6.74;100.00
62418;BME280;48456;54.242;10.280;2024-02-21T09:06:20;101033.94;;;6.80;100.00
62418;BME280;48456;54.242;10.280;2024-02-21T09:08:46;101035.00;;;6.92;100.00
62418;BME280;48456;54.242;10.280;2024-02-21T09:11:13;101038.50;;;6.91;100.00
62418;BME280;48456;54.242;10.280;2024-02-21T09:13:39;101028.03;;;6.97;100.00
62418;BME280;48456;54.242;10.280;2024-02-21T09:16:06;101036.09;;;7.09;100.00
62418;BME280;48456;54.242;10.280;2024-02-21T09:18:32;101025.53;;;7.06;100.00
62418;BME280;48456;54.242;10.280;2024-02-21T09:20:59;101031.72;;;7.08;100.00
62418;BME280;48456;54.242;10.280;2024-02-21T09:23:26;101030.88;;;7.11;100.00
62418;BME280;48456;54.242;10.280;2024-02-21T09:25:53;101023.84;;;7.11;100.00
62418;BME280;48456;54.242;10.280;2024-02-21T09:28:22;101018.63;;;7.14;100.00
62418;BME280;48456;54.242;10.280;2024-02-21T09:30:49;101012.66;;;7.28;100.00
62418;BME280;48456;54.242;10.280;2024-02-21T09:33:15;101011.13;;;7.44;100.00
62418;BME280;48456;54.242;10.280;2024-02-21T09:35:57;100992.00;;;7.59;100.00
62418;BME280;48456;54.242;10.280;2024-02-21T09:38:23;100975.34;;;7.62;100.00
62418;BME280;48456;54.242;10.280;2024-02-21T09:40:58;100970.88;;;7.54;100.00
62418;BME280;48456;54.242;10.280;2024-02-21T09:43:26;100972.38;;;7.34;100.00
62418;BME280;48456;54.242;10.280;2024-02-21T09:45:54;100973.06;;;7.17;100.00
62418;BME280;48456;54.242;10.280;2024-02-21T09:48:25;100972.16;;;7.13;100.00
62418;BME280;48456;54.242;10.280;2024-02-21T09:51:01;100958.91;;;7.06;100.00
62418;BME280;48456;54.242;10.280;2024-02-21T09:53:28;100961.47;;;7.01;100.00
62418;BME280;48456;54.242;10.280;2024-02-21T09:55:57;100951.75;;;6.95;100.00
62418;BME280;48456;54.242;10.280;2024-02-21T09:58:24;100951.66;;;6.87;100.00
62418;BME280;48456;54.242;10.280;2024-02-21T10:00:53;100946.34;;;6.84;100.00
62418;BME280;48456;54.242;10.280;2024-02-21T10:03:20;100940.41;;;6.99;100.00
62418;BME280;48456;54.242;10.280;2024-02-21T10:05:49;100939.72;;;7.16;100.00
62418;BME280;48456;54.242;10.280;2024-02-21T10:08:17;100931.94;;;7.25;100.00
62418;BME280;48456;54.242;10.280;2024-02-21T10:10:44;100939.03;;;7.31;100.00
62418;BME280;48456;54.242;10.280;2024-02-21T10:13:24;100939.13;;;7.40;100.00
62418;BME280;48456;54.242;10.280;2024-02-21T10:16:01;100934.00;;;7.53;100.00
62418;BME280;48456;54.242;10.280;2024-02-21T10:18:28;100928.00;;;7.68;100.00
62418;BME280;48456;54.242;10.280;2024-02-21T10:21:01;100928.91;;;7.70;100.00
62418;BME280;48456;54.242;10.280;2024-02-21T10:23:28;100934.34;;;7.89;100.00
62418;BME280;48456;54.242;10.280;2024-02-21T10:26:04;100929.13;;;7.98;100.00
62418;BME280;48456;54.242;10.280;2024-02-21T10:28:31;100922.16;;;8.05;100.00
62418;BME280;48456;54.242;10.280;2024-02-21T10:30:57;100928.28;;;7.99;100.00
62418;BME280;48456;54.242;10.280;2024-02-21T10:33:24;100929.22;;;8.06;100.00
62418;BME280;48456;54.242;10.280;2024-02-21T10:35:51;100924.75;;;7.99;100.00
62418;BME280;48456;54.242;10.280;2024-02-21T10:38:18;100932.81;;;8.14;100.00
62418;BME280;48456;54.242;10.280;2024-02-21T10:40:44;100959.25;;;8.30;100.00
62418;BME280;48456;54.242;10.280;2024-02-21T10:43:13;101061.13;;;8.25;100.00
62418;BME280;48456;54.242;10.280;2024-02-21T10:45:40;101080.38;;;8.14;100.00
62418;BME280;48456;54.242;10.280;2024-02-21T10:48:11;101079.50;;;8.17;100.00
62418;BME280;48456;54.242;10.280;2024-02-21T10:50:52;101059.44;;;8.31;100.00
62418;BME280;48456;54.242;10.280;2024-02-21T10:53:24;101055.28;;;8.55;100.00
62418;BME280;48456;54.242;10.280;2024-02-21T10:56:11;101058.88;;;8.65;100.00
62418;BME280;48456;54.242;10.280;2024-02-21T10:58:41;101064.16;;;8.64;100.00
62418;BME280;48456;54.242;10.280;2024-02-21T11:01:09;101058.03;;;8.69;100.00
62418;BME280;48456;54.242;10.280;2024-02-21T11:03:35;101060.63;;;8.63;100.00
62418;BME280;48456;54.242;10.280;2024-02-21T11:06:03;101054.50;;;8.67;100.00
62418;BME280;48456;54.242;10.280;2024-02-21T11:08:31;101038.81;;;8.89;100.00
62418;BME280;48456;54.242;10.280;2024-02-21T11:10:58;101053.72;;;8.78;100.00
62418;BME280;48456;54.242;10.280;2024-02-21T11:13:34;101056.25;;;8.68;100.00
62418;BME280;48456;54.242;10.280;2024-02-21T11:16:08;101051.84;;;8.66;100.00
62418;BME280;48456;54.242;10.280;2024-02-21T11:18:36;101050.88;;;8.53;100.00
62418;BME280;48456;54.242;10.280;2024-02-21T11:21:02;101025.53;;;8.72;100.00
62418;BME280;48456;54.242;10.280;2024-02-21T11:23:31;101037.94;;;8.87;100.00
62418;BME280;48456;54.242;10.280;2024-02-21T11:26:07;101036.19;;;8.92;100.00
62418;BME280;48456;54.242;10.280;2024-02-21T11:28:34;101039.91;;;9.26;100.00
62418;BME280;48456;54.242;10.280;2024-02-21T11:31:10;101040.06;;;9.63;100.00
62418;BME280;48456;54.242;10.280;2024-02-21T11:33:39;101038.38;;;9.98;100.00
62418;BME280;48456;54.242;10.280;2024-02-21T11:36:06;101028.78;;;10.45;100.00
62418;BME280;48456;54.242;10.280;2024-02-21T11:38:32;101033.16;;;10.57;100.00
62418;BME280;48456;54.242;10.280;2024-02-21T11:40:58;101029.63;;;10.33;100.00
62418;BME280;48456;54.242;10.280;2024-02-21T11:43:25;101033.13;;;10.06;100.00
62418;BME280;48456;54.242;10.280;2024-02-21T11:45:58;101017.22;;;9.88;100.00
62418;BME280;48456;54.242;10.280;2024-02-21T11:48:25;101018.91;;;9.55;100.00
62418;BME280;48456;54.242;10.280;2024-02-21T11:50:52;101010.00;;;9.27;100.00
62418;BME280;48456;54.242;10.280;2024-02-21T11:53:19;101001.00;;;8.90;100.00
62418;BME280;48456;54.242;10.280;2024-02-21T11:55:46;100998.31;;;8.81;100.00
62418;BME280;48456;54.242;10.280;2024-02-21T11:58:12;100986.81;;;8.71;100.00
62418;BME280;48456;54.242;10.280;2024-02-21T12:00:39;100974.53;;;8.75;100.00
62418;BME280;48456;54.242;10.280;2024-02-21T12:03:07;100956.94;;;8.69;100.00
62418;BME280;48456;54.242;10.280;2024-02-21T12:05:33;100947.25;;;8.73;100.00
62418;BME280;48456;54.242;10.280;2024-02-21T12:08:00;100931.53;;;8.94;100.00
62418;BME280;48456;54.242;10.280;2024-02-21T12:10:27;100942.13;;;8.97;100.00
62418;BME280;48456;54.242;10.280;2024-02-21T12:13:08;100943.88;;;8.94;100.00
62418;BME280;48456;54.242;10.280;2024-02-21T12:15:35;100929.81;;;8.98;100.00
62418;BME280;48456;54.242;10.280;2024-02-21T12:18:01;100919.31;;;9.12;100.00
62418;BME280;48456;54.242;10.280;2024-02-21T12:20:28;100905.31;;;9.29;100.00
62418;BME280;48456;54.242;10.280;2024-02-21T12:22:54;100911.47;;;9.34;100.00
62418;BME280;48456;54.242;10.280;2024-02-21T12:25:21;100921.09;;;9.13;100.00
62418;BME280;48456;54.242;10.280;2024-02-21T12:27:53;100907.00;;;9.08;100.00
62418;BME280;48456;54.242;10.280;2024-02-21T12:30:19;100913.16;;;9.10;100.00
62418;BME280;48456;54.242;10.280;2024-02-21T12:32:46;100891.19;;;9.19;100.00
62418;BME280;48456;54.242;10.280;2024-02-21T12:35:13;100901.72;;;9.11;100.00
62418;BME280;48456;54.242;10.280;2024-02-21T12:37:39;100887.69;;;9.29;100.00
62418;BME280;48456;54.242;10.280;2024-02-21T12:40:06;100900.81;;;9.07;100.00
62418;BME280;48456;54.242;10.280;2024-02-21T12:42:33;100880.47;;;8.72;100.00